Suggestion Search

Define a bounding box (note: it will not wrap North/South over poles). If the range is zero degrees, a bounding box will not be used to constrain the search.

Centered On °   °

Match text in the suggestion title, science rationale or special notes. The search is case-insensitive. % is a wildcard (_ for a single character).

Find
Search

You may select science themes to limit query, otherwise suggestions from all themes will be returned.

Multiple values may be selected (shift + click).

  Rows per page
24,456 records found, displaying 201 to 300.[First/Prev] 1, 2, 3, 4, 5, 6, 7, 8 [Next/Last]
ID Suggestion Title Latitude Longitude Repeat Created Observation ID username
185414 Utopia Planita 24.625 110.179 STEREO 2020-08-13 mcewen
185374 Dune Monitoring in Kunowsky Crater - NML072 56.724 350.839 3 2020-08-11 JWidmer22
185372 Dune Monitoring in Kunowsky Crater - NML072 56.724 350.839 3 2020-08-11 JWidmer22
185368 Dune monitoring in crater 42.535 67.075 2 2020-08-11 JWidmer22
185364 Dune Monitoring in Lyot Crater - NML003 50.222 28.907 2 2020-08-11 JWidmer22
185362 Dune Monitoring in Lyot Crater - NML003 50.222 28.907 2 2020-08-11 JWidmer22
185360 Dune Monitoring in Unnamed Crater - NML115 47.907 323.698 2 2020-08-11 JWidmer22
185350 Secondary craters in Nilus Chaos region 24.407 281.499 1 2020-08-11 jimmars
185348 Possible exposed ejecta in southeast Hargraves Crater ejecta blanket 20.469 76.353 1 2020-08-11 leahsacks
185346 Monitoring the slopes of an unnamed crater in Terra Cimmeria -47.018 18.785 1 2020-08-10 vidhyaganeshr
185344 Monitoring the slopes of Moni crater -47.018 18.785 1 2020-08-10 vidhyaganeshr
185330 Valley and light-toned exposure in channel in Terra Cimmeria -26.917 159.551 1 2020-08-09 kedgett
185328 Landforms in intercrater terrain due west of Reuyl crater -9.058 158.281 1 2020-08-09 kedgett
185324 Sinuous ridge in Terra Sabaea -17.324 42.192 1 2020-08-09 kedgett
185322 Yardangs and other landforms in shallowed crater 10.810 348.882 1 2020-08-09 kedgett
185318 Cone-shaped hill with summit depression 17.196 52.162 1 2020-08-09 kedgett
185316 Lobate margin in contact with raised-rim crater 46.806 14.552 1 2020-08-09 kedgett
185314 Prominent lobate margin feature in northwestern Isidis Planitia 17.404 80.761 1 2020-08-09 kedgett
185308 Star and barchan dune monitoring near Tyrrhena Terra -8.733 89.024 7 2020-08-07 mattchoj
185306 Wirtz Crater dune changes -48.256 334.674 4 2020-08-07 mattchoj
185304 Korolev Crater 72.508 165.696 1 2020-08-07 sirreg2112
185302 Gully monitoring -33.647 134.723 1 2020-08-07 dundas
185298 Crater monitoring -82.020 175.710 5 2020-08-07 dundas
185296 Crater monitoring -82.020 175.710 5 2020-08-07 dundas
185294 Crater monitoring -82.020 175.710 5 2020-08-07 dundas
185292 Crater monitoring -82.020 175.710 5 2020-08-07 dundas
185282 Channels in Enipeus Vallis 36.634 267.060 1 2020-08-04 jimmars
185280 Channels in Enipeus Vallis 38.359 266.775 1 2020-08-04 jimmars
185278 Slope monitoring for RSL -10.578 129.967 8 2020-08-04 dstillman
185276 Slope monitoring for RSL -10.578 129.967 8 2020-08-04 dstillman
185274 Slope monitoring for RSL -10.578 129.967 8 2020-08-04 dstillman
185272 Slope monitoring for RSL -10.578 129.967 8 2020-08-04 dstillman
185270 Slope monitoring for RSL -10.578 129.967 8 2020-08-04 dstillman
185268 Slope monitoring for RSL -10.578 129.967 8 2020-08-04 dstillman
185266 Slope monitoring for RSL -10.578 129.967 8 2020-08-04 dstillman
185264 Slope monitoring for RSL -10.578 129.967 8 2020-08-04 dstillman
185262 Crater with bench in Enipeus Vallis 37.944 266.846 1 2020-08-04 jimmars
185260 Crater with mesa in Enipeus Vallis 37.987 266.753 1 2020-08-04 jimmars
185258 Streamlined forms in Enipeus Vallis 37.305 267.182 1 2020-08-04 jimmars
185256 Streamlined forms in Enipeus Vallis 37.298 266.915 1 2020-08-04 jimmars
185230 Layers in crater in northern mid-latitudes 36.523 267.365 1 2020-08-03 jimmars
185228 Channels in northern mid-latitudes 34.498 267.760 1 2020-08-03 jimmars
185226 Channel in northern mid-latitudes 36.419 268.776 1 2020-08-03 jimmars
185220 Channel in northern mid-latitudes 36.245 268.562 1 2020-08-03 jimmars
185192 Layers in ridge in northern mid-latitudes 34.815 268.590 1 2020-08-03 jimmars
185180 Lava flow in northern mid-latitudes 33.484 268.842 1 2020-08-03 jimmars
185170 Lava flow in northern mid-latitudes 37.674 269.077 1 2020-08-03 jimmars
185168 Lava flowing into crater in northern mid-latitudes 37.566 269.294 1 2020-08-03 jimmars
185166 Layers in crater in northern mid-latitudes 37.866 268.855 1 2020-08-03 jimmars
185164 Lava flow in northern mid-latitudes 37.570 268.745 1 2020-08-03 jimmars
185162 Rings in crater ejecta in northern mid-latitudes 37.160 269.272 1 2020-08-03 jimmars
185160 Lava flow in northern mid-latitudes 36.195 268.940 1 2020-08-03 jimmars
185158 Gamboa crater dune repeat imaging 40.721 315.701 3 2020-08-02 mattchoj
185156 Gamboa crater dune repeat imaging 40.721 315.701 3 2020-08-02 mattchoj
185154 Gamboa crater dune repeat imaging 40.721 315.701 3 2020-08-02 mattchoj
185152 Depression in northern mid-latitudes 35.855 271.137 1 2020-08-01 jimmars
185150 Double crater in northern mid-latitudes 35.626 270.882 1 2020-08-01 jimmars
185148 Channel in northern mid-latitudes 35.033 271.090 1 2020-08-01 jimmars
185146 Ridge in northern mid-latitudes 34.580 270.920 1 2020-08-01 jimmars
185144 Grooves in ejecta in northern mid-latitudes 33.756 270.905 1 2020-08-01 jimmars
185142 Craters in ejecta in northern mid-latitudes 33.987 270.873 1 2020-08-01 jimmars
185140 Trough in northern mid-latitudes 32.327 272.560 1 2020-08-01 jimmars
185138 Layers in crater wall in Mareotis Fossae 34.134 270.967 1 2020-07-31 jimmars
185136 Slope monitoring for RSL -9.174 21.834 8 2020-07-31 dstillman
185134 Slope monitoring for RSL -9.174 21.834 8 2020-07-31 dstillman
185132 Slope monitoring for RSL -9.174 21.834 8 2020-07-31 dstillman
185130 Slope monitoring for RSL -9.174 21.834 8 2020-07-31 dstillman
185128 Slope monitoring for RSL -9.174 21.834 8 2020-07-31 dstillman
185126 Slope monitoring for RSL -9.174 21.834 8 2020-07-31 dstillman
185124 Slope monitoring for RSL -9.174 21.834 8 2020-07-31 dstillman
185122 Slope monitoring for RSL -9.174 21.834 8 2020-07-31 dstillman
185120 Volcanic vent in Tempe Fossae region 33.317 272.692 1 2020-07-31 jimmars
185118 Ridges in Tempe Fossae region 32.981 272.466 1 2020-07-31 jimmars
185116 Trough in northern mid-latitudes 32.584 272.775 1 2020-07-31 jimmars
185114 Ridges in Tempe Fossae region 32.967 273.290 1 2020-07-31 jimmars
185112 Ridges in Tempe Fossae region 33.069 273.375 1 2020-07-31 jimmars
185110 Ridges in Tempe Fossae region 33.032 273.395 1 2020-07-31 jimmars
185108 Ridges in Tempe Fossae region 32.105 273.777 1 2020-07-31 jimmars
185106 Meridiani Planum layering 2.403 3.705 1 2020-07-31 kseelos
185104 Ridge in Tempe Fossae region 31.877 273.617 1 2020-07-30 jimmars
185102 Small channel in Tempe Fossae region 31.163 273.914 1 2020-07-30 jimmars
185100 Channels in crater in Tempe Fossae region 30.930 273.796 1 2020-07-30 jimmars
185098 Possible fan in Tempe Fossae 30.544 273.443 1 2020-07-30 jimmars
185096 Channels in crater in Tempe Fossae region 30.385 273.518 1 2020-07-30 jimmars
185092 Fresh crater ejecta in Tempe Fossae region 30.285 273.752 1 2020-07-30 jimmars
185089 Slope sample -36.626 154.347 1 2020-07-30 vjbray
185070 Mesas in Nilus Chaos 24.860 281.529 1 2020-07-29 jimmars
185068 Secondary craters in Nilus Chaos region 24.407 281.499 1 2020-07-29 jimmars
185066 Layers in crater wall in Nilus Chaos 24.568 281.542 1 2020-07-29 jimmars
185064 Troughs in Nilus Chaos 25.823 281.455 1 2020-07-29 jimmars
185062 Slump along scarp in Nilus Chaos 24.972 281.608 1 2020-07-29 jimmars
185060 Layers in crater in Nilus Chaos 25.166 281.776 1 2020-07-29 jimmars
185050 Kasei Valles lava 26.498 294.749 1 2020-07-28 dundas
185048 Kasei Valles lava 26.838 293.916 1 2020-07-28 dundas
185046 Kasei Valles lava 26.540 290.652 1 2020-07-28 dundas
185044 Mesa with moat 28.097 286.526 1 2020-07-28 dundas
185042 Mesa with moat 27.764 286.344 1 2020-07-28 dundas
185040 Deposit in Bahram Vallis 20.876 301.824 1 2020-07-28 dundas
184972 Layers in wall of crater near Nilus Chaos 25.000 282.405 1 2020-07-27 jimmars
184950 Channels near ejecta 23.701 282.306 1 2020-07-27 jimmars

Each suggestion is given a unique ID. A stereo suggestion will be made into a pair at the discretion of the Science Theme Lead.

Suggestion title.

Latitudes are expressed in planetocentric degrees.

Longitude are measured in degrees and range east from 0 to 360.

1 for a single suggestion, STEREO for a stereo suggestion, otherwise the number of suggestions in a seasonal or other repeat set.

The date on which the suggestion was created.

If the suggestion has been retired, a link to the observation page.

The username of the suggester.